sensor_id;sensor_type;location;lat;lon;timestamp;P1;durP1;ratioP1;P2;durP2;ratioP2
28848;SDS011;15981;43.292;-2.888;2023-04-03T00:00:25;2.03;;;1.03;;
28848;SDS011;15981;43.292;-2.888;2023-04-03T00:02:51;1.88;;;1.10;;
28848;SDS011;15981;43.292;-2.888;2023-04-03T00:05:17;2.45;;;1.10;;
28848;SDS011;15981;43.292;-2.888;2023-04-03T00:07:43;3.00;;;1.37;;
28848;SDS011;15981;43.292;-2.888;2023-04-03T00:10:08;2.23;;;1.20;;
28848;SDS011;15981;43.292;-2.888;2023-04-03T00:12:34;1.80;;;1.00;;
28848;SDS011;15981;43.292;-2.888;2023-04-03T00:15:00;2.25;;;1.27;;
28848;SDS011;15981;43.292;-2.888;2023-04-03T00:17:26;1.20;;;0.95;;
28848;SDS011;15981;43.292;-2.888;2023-04-03T00:19:51;1.53;;;1.10;;
28848;SDS011;15981;43.292;-2.888;2023-04-03T00:22:17;2.30;;;1.25;;
28848;SDS011;15981;43.292;-2.888;2023-04-03T00:24:43;2.00;;;1.05;;
28848;SDS011;15981;43.292;-2.888;2023-04-03T00:27:09;2.80;;;1.20;;
28848;SDS011;15981;43.292;-2.888;2023-04-03T00:29:34;3.58;;;1.20;;
28848;SDS011;15981;43.292;-2.888;2023-04-03T00:32:00;2.25;;;1.17;;
28848;SDS011;15981;43.292;-2.888;2023-04-03T00:34:26;2.80;;;1.30;;
28848;SDS011;15981;43.292;-2.888;2023-04-03T00:36:51;1.25;;;0.80;;
28848;SDS011;15981;43.292;-2.888;2023-04-03T00:39:17;2.22;;;1.10;;
28848;SDS011;15981;43.292;-2.888;2023-04-03T00:41:43;1.63;;;0.90;;
28848;SDS011;15981;43.292;-2.888;2023-04-03T00:46:53;2.63;;;1.27;;
28848;SDS011;15981;43.292;-2.888;2023-04-03T00:49:18;2.90;;;1.33;;
28848;SDS011;15981;43.292;-2.888;2023-04-03T00:51:44;3.90;;;1.30;;
28848;SDS011;15981;43.292;-2.888;2023-04-03T00:54:10;2.08;;;1.00;;
28848;SDS011;15981;43.292;-2.888;2023-04-03T00:56:37;2.55;;;1.10;;
28848;SDS011;15981;43.292;-2.888;2023-04-03T00:59:06;2.03;;;1.20;;
28848;SDS011;15981;43.292;-2.888;2023-04-03T01:01:33;1.50;;;0.95;;
28848;SDS011;15981;43.292;-2.888;2023-04-03T01:04:00;2.38;;;1.40;;
28848;SDS011;15981;43.292;-2.888;2023-04-03T01:06:27;1.77;;;1.20;;
28848;SDS011;15981;43.292;-2.888;2023-04-03T01:08:53;1.92;;;1.20;;
28848;SDS011;15981;43.292;-2.888;2023-04-03T01:11:20;2.17;;;1.07;;
28848;SDS011;15981;43.292;-2.888;2023-04-03T01:13:46;1.48;;;1.15;;
28848;SDS011;15981;43.292;-2.888;2023-04-03T01:16:12;1.80;;;1.00;;
28848;SDS011;15981;43.292;-2.888;2023-04-03T01:18:38;1.05;;;0.80;;
28848;SDS011;15981;43.292;-2.888;2023-04-03T01:21:16;2.65;;;1.00;;
28848;SDS011;15981;43.292;-2.888;2023-04-03T01:26:15;3.05;;;1.27;;
28848;SDS011;15981;43.292;-2.888;2023-04-03T01:28:41;2.55;;;1.30;;
28848;SDS011;15981;43.292;-2.888;2023-04-03T01:33:35;1.40;;;1.00;;
28848;SDS011;15981;43.292;-2.888;2023-04-03T01:36:01;1.67;;;1.10;;
28848;SDS011;15981;43.292;-2.888;2023-04-03T01:38:26;2.00;;;0.90;;
28848;SDS011;15981;43.292;-2.888;2023-04-03T01:40:52;1.97;;;1.10;;
28848;SDS011;15981;43.292;-2.888;2023-04-03T01:43:18;2.13;;;1.20;;
28848;SDS011;15981;43.292;-2.888;2023-04-03T01:45:44;2.92;;;1.27;;
28848;SDS011;15981;43.292;-2.888;2023-04-03T01:48:10;2.60;;;1.10;;
28848;SDS011;15981;43.292;-2.888;2023-04-03T01:50:35;1.70;;;1.00;;
28848;SDS011;15981;43.292;-2.888;2023-04-03T01:53:01;1.75;;;0.90;;
28848;SDS011;15981;43.292;-2.888;2023-04-03T01:55:27;2.17;;;1.00;;
28848;SDS011;15981;43.292;-2.888;2023-04-03T01:57:53;3.40;;;1.00;;
28848;SDS011;15981;43.292;-2.888;2023-04-03T02:00:18;1.53;;;1.00;;
28848;SDS011;15981;43.292;-2.888;2023-04-03T02:02:44;2.25;;;1.10;;
28848;SDS011;15981;43.292;-2.888;2023-04-03T02:05:10;2.25;;;1.10;;
28848;SDS011;15981;43.292;-2.888;2023-04-03T02:07:35;1.47;;;1.00;;
28848;SDS011;15981;43.292;-2.888;2023-04-03T02:10:02;2.13;;;0.90;;
28848;SDS011;15981;43.292;-2.888;2023-04-03T02:12:27;2.95;;;1.23;;
28848;SDS011;15981;43.292;-2.888;2023-04-03T02:14:53;1.20;;;1.00;;
28848;SDS011;15981;43.292;-2.888;2023-04-03T02:17:19;2.40;;;1.30;;
28848;SDS011;15981;43.292;-2.888;2023-04-03T02:19:45;2.60;;;1.20;;
28848;SDS011;15981;43.292;-2.888;2023-04-03T02:22:10;1.97;;;1.10;;
28848;SDS011;15981;43.292;-2.888;2023-04-03T02:24:36;2.92;;;1.20;;
28848;SDS011;15981;43.292;-2.888;2023-04-03T02:27:04;1.80;;;1.00;;
28848;SDS011;15981;43.292;-2.888;2023-04-03T02:29:30;1.57;;;1.00;;
28848;SDS011;15981;43.292;-2.888;2023-04-03T02:31:55;1.93;;;1.00;;
28848;SDS011;15981;43.292;-2.888;2023-04-03T02:34:21;1.60;;;1.02;;
28848;SDS011;15981;43.292;-2.888;2023-04-03T02:36:47;2.03;;;1.10;;
28848;SDS011;15981;43.292;-2.888;2023-04-03T02:39:13;1.53;;;1.00;;
28848;SDS011;15981;43.292;-2.888;2023-04-03T02:41:39;1.27;;;0.87;;
28848;SDS011;15981;43.292;-2.888;2023-04-03T02:44:05;2.77;;;1.00;;
28848;SDS011;15981;43.292;-2.888;2023-04-03T02:46:31;1.60;;;1.10;;
28848;SDS011;15981;43.292;-2.888;2023-04-03T02:48:57;1.50;;;1.00;;
28848;SDS011;15981;43.292;-2.888;2023-04-03T02:51:23;1.57;;;1.00;;
28848;SDS011;15981;43.292;-2.888;2023-04-03T02:53:49;1.60;;;0.90;;
28848;SDS011;15981;43.292;-2.888;2023-04-03T02:56:15;2.20;;;1.10;;
28848;SDS011;15981;43.292;-2.888;2023-04-03T02:58:40;1.70;;;0.93;;
28848;SDS011;15981;43.292;-2.888;2023-04-03T03:01:06;0.90;;;0.80;;
28848;SDS011;15981;43.292;-2.888;2023-04-03T03:03:32;1.77;;;0.90;;
28848;SDS011;15981;43.292;-2.888;2023-04-03T03:06:04;2.13;;;1.00;;
28848;SDS011;15981;43.292;-2.888;2023-04-03T03:08:30;2.65;;;0.90;;
28848;SDS011;15981;43.292;-2.888;2023-04-03T03:10:56;2.03;;;0.90;;
28848;SDS011;15981;43.292;-2.888;2023-04-03T03:13:22;2.70;;;1.13;;
28848;SDS011;15981;43.292;-2.888;2023-04-03T03:15:48;1.58;;;1.00;;
28848;SDS011;15981;43.292;-2.888;2023-04-03T03:18:13;1.95;;;0.90;;
28848;SDS011;15981;43.292;-2.888;2023-04-03T03:20:39;1.75;;;1.15;;
28848;SDS011;15981;43.292;-2.888;2023-04-03T03:23:05;2.95;;;0.90;;
28848;SDS011;15981;43.292;-2.888;2023-04-03T03:25:31;1.70;;;0.90;;
28848;SDS011;15981;43.292;-2.888;2023-04-03T03:27:57;2.43;;;1.17;;
28848;SDS011;15981;43.292;-2.888;2023-04-03T03:30:22;1.52;;;1.05;;
28848;SDS011;15981;43.292;-2.888;2023-04-03T03:32:48;1.67;;;0.83;;
28848;SDS011;15981;43.292;-2.888;2023-04-03T03:35:14;1.53;;;1.03;;
28848;SDS011;15981;43.292;-2.888;2023-04-03T03:37:40;1.83;;;1.20;;
28848;SDS011;15981;43.292;-2.888;2023-04-03T03:40:06;2.20;;;1.02;;
28848;SDS011;15981;43.292;-2.888;2023-04-03T03:42:31;2.05;;;1.00;;
28848;SDS011;15981;43.292;-2.888;2023-04-03T03:44:57;1.00;;;0.90;;
28848;SDS011;15981;43.292;-2.888;2023-04-03T03:47:23;1.17;;;1.00;;
28848;SDS011;15981;43.292;-2.888;2023-04-03T03:49:49;1.85;;;1.25;;
28848;SDS011;15981;43.292;-2.888;2023-04-03T03:52:15;1.48;;;0.82;;
28848;SDS011;15981;43.292;-2.888;2023-04-03T03:54:41;1.20;;;1.10;;
28848;SDS011;15981;43.292;-2.888;2023-04-03T03:57:07;2.90;;;1.00;;
28848;SDS011;15981;43.292;-2.888;2023-04-03T03:59:32;1.60;;;1.00;;
28848;SDS011;15981;43.292;-2.888;2023-04-03T04:01:58;1.67;;;1.10;;
28848;SDS011;15981;43.292;-2.888;2023-04-03T04:04:24;1.52;;;0.80;;
28848;SDS011;15981;43.292;-2.888;2023-04-03T04:06:49;2.30;;;1.08;;
28848;SDS011;15981;43.292;-2.888;2023-04-03T04:09:15;2.08;;;1.30;;
28848;SDS011;15981;43.292;-2.888;2023-04-03T04:11:41;4.17;;;1.50;;
28848;SDS011;15981;43.292;-2.888;2023-04-03T04:14:07;1.27;;;1.00;;
28848;SDS011;15981;43.292;-2.888;2023-04-03T04:16:33;1.60;;;1.23;;
28848;SDS011;15981;43.292;-2.888;2023-04-03T04:18:58;1.47;;;1.00;;
28848;SDS011;15981;43.292;-2.888;2023-04-03T04:21:24;2.53;;;1.17;;
28848;SDS011;15981;43.292;-2.888;2023-04-03T04:23:50;3.05;;;1.23;;
28848;SDS011;15981;43.292;-2.888;2023-04-03T04:26:16;3.00;;;1.05;;
28848;SDS011;15981;43.292;-2.888;2023-04-03T04:28:42;1.23;;;1.05;;
28848;SDS011;15981;43.292;-2.888;2023-04-03T04:31:07;1.10;;;1.00;;
28848;SDS011;15981;43.292;-2.888;2023-04-03T04:33:33;3.25;;;1.30;;
28848;SDS011;15981;43.292;-2.888;2023-04-03T04:35:59;3.58;;;1.13;;
28848;SDS011;15981;43.292;-2.888;2023-04-03T04:38:25;1.25;;;0.90;;
28848;SDS011;15981;43.292;-2.888;2023-04-03T04:40:50;2.00;;;0.90;;
28848;SDS011;15981;43.292;-2.888;2023-04-03T04:43:16;1.25;;;1.00;;
28848;SDS011;15981;43.292;-2.888;2023-04-03T04:45:42;2.55;;;0.98;;
28848;SDS011;15981;43.292;-2.888;2023-04-03T04:48:08;2.13;;;1.10;;
28848;SDS011;15981;43.292;-2.888;2023-04-03T04:50:34;2.65;;;1.25;;
28848;SDS011;15981;43.292;-2.888;2023-04-03T04:52:59;2.57;;;1.10;;
28848;SDS011;15981;43.292;-2.888;2023-04-03T04:55:25;2.67;;;1.17;;
28848;SDS011;15981;43.292;-2.888;2023-04-03T04:57:51;2.40;;;1.10;;
28848;SDS011;15981;43.292;-2.888;2023-04-03T05:00:17;1.35;;;1.02;;
28848;SDS011;15981;43.292;-2.888;2023-04-03T05:02:43;1.63;;;1.30;;
28848;SDS011;15981;43.292;-2.888;2023-04-03T05:05:08;1.47;;;1.10;;
28848;SDS011;15981;43.292;-2.888;2023-04-03T05:07:34;1.80;;;0.95;;
28848;SDS011;15981;43.292;-2.888;2023-04-03T05:10:01;2.07;;;1.23;;
28848;SDS011;15981;43.292;-2.888;2023-04-03T05:12:28;2.10;;;1.20;;
28848;SDS011;15981;43.292;-2.888;2023-04-03T05:14:53;2.33;;;1.33;;
28848;SDS011;15981;43.292;-2.888;2023-04-03T05:17:19;1.55;;;1.20;;
28848;SDS011;15981;43.292;-2.888;2023-04-03T05:19:45;2.25;;;1.00;;
28848;SDS011;15981;43.292;-2.888;2023-04-03T05:22:10;2.40;;;1.30;;
28848;SDS011;15981;43.292;-2.888;2023-04-03T05:24:36;1.75;;;1.02;;
28848;SDS011;15981;43.292;-2.888;2023-04-03T05:27:02;2.03;;;1.30;;
28848;SDS011;15981;43.292;-2.888;2023-04-03T05:29:28;3.47;;;1.37;;
28848;SDS011;15981;43.292;-2.888;2023-04-03T05:31:53;1.73;;;1.20;;
28848;SDS011;15981;43.292;-2.888;2023-04-03T05:34:19;3.38;;;1.48;;
28848;SDS011;15981;43.292;-2.888;2023-04-03T05:36:45;2.30;;;1.17;;
28848;SDS011;15981;43.292;-2.888;2023-04-03T05:39:11;2.20;;;1.05;;
28848;SDS011;15981;43.292;-2.888;2023-04-03T05:41:37;2.03;;;1.27;;
28848;SDS011;15981;43.292;-2.888;2023-04-03T05:44:02;2.25;;;1.38;;
28848;SDS011;15981;43.292;-2.888;2023-04-03T05:46:28;3.17;;;1.25;;
28848;SDS011;15981;43.292;-2.888;2023-04-03T05:48:54;2.37;;;1.20;;
28848;SDS011;15981;43.292;-2.888;2023-04-03T05:51:24;2.55;;;1.30;;
28848;SDS011;15981;43.292;-2.888;2023-04-03T05:53:52;1.93;;;1.67;;
28848;SDS011;15981;43.292;-2.888;2023-04-03T05:56:20;2.70;;;1.20;;
28848;SDS011;15981;43.292;-2.888;2023-04-03T05:58:46;1.58;;;1.10;;
28848;SDS011;15981;43.292;-2.888;2023-04-03T06:01:12;3.83;;;1.00;;
28848;SDS011;15981;43.292;-2.888;2023-04-03T06:03:38;1.98;;;1.15;;
28848;SDS011;15981;43.292;-2.888;2023-04-03T06:06:05;2.90;;;1.27;;
28848;SDS011;15981;43.292;-2.888;2023-04-03T06:08:31;2.67;;;1.20;;
28848;SDS011;15981;43.292;-2.888;2023-04-03T06:10:57;2.97;;;1.13;;
28848;SDS011;15981;43.292;-2.888;2023-04-03T06:13:22;1.55;;;1.10;;
28848;SDS011;15981;43.292;-2.888;2023-04-03T06:15:49;1.38;;;1.05;;
28848;SDS011;15981;43.292;-2.888;2023-04-03T06:18:14;1.80;;;1.20;;
28848;SDS011;15981;43.292;-2.888;2023-04-03T06:20:40;2.53;;;1.30;;
28848;SDS011;15981;43.292;-2.888;2023-04-03T06:23:06;1.77;;;1.30;;
28848;SDS011;15981;43.292;-2.888;2023-04-03T06:25:32;2.40;;;1.20;;
28848;SDS011;15981;43.292;-2.888;2023-04-03T06:27:59;2.53;;;1.20;;
28848;SDS011;15981;43.292;-2.888;2023-04-03T06:30:24;2.33;;;1.10;;
28848;SDS011;15981;43.292;-2.888;2023-04-03T06:32:51;2.50;;;1.35;;
28848;SDS011;15981;43.292;-2.888;2023-04-03T06:35:17;2.70;;;1.30;;
28848;SDS011;15981;43.292;-2.888;2023-04-03T06:37:43;2.90;;;1.40;;
28848;SDS011;15981;43.292;-2.888;2023-04-03T06:40:12;2.70;;;1.30;;
28848;SDS011;15981;43.292;-2.888;2023-04-03T06:42:41;2.50;;;1.42;;
28848;SDS011;15981;43.292;-2.888;2023-04-03T06:45:06;3.50;;;1.58;;
28848;SDS011;15981;43.292;-2.888;2023-04-03T06:47:33;2.50;;;1.50;;
28848;SDS011;15981;43.292;-2.888;2023-04-03T06:49:58;12.57;;;5.68;;
28848;SDS011;15981;43.292;-2.888;2023-04-03T06:52:24;9.80;;;3.53;;
28848;SDS011;15981;43.292;-2.888;2023-04-03T06:54:50;7.87;;;3.33;;
28848;SDS011;15981;43.292;-2.888;2023-04-03T06:57:22;14.02;;;4.72;;
28848;SDS011;15981;43.292;-2.888;2023-04-03T06:59:48;16.25;;;5.78;;
28848;SDS011;15981;43.292;-2.888;2023-04-03T07:02:13;10.43;;;3.92;;
28848;SDS011;15981;43.292;-2.888;2023-04-03T07:04:40;9.02;;;3.42;;
28848;SDS011;15981;43.292;-2.888;2023-04-03T07:07:05;10.40;;;3.10;;
28848;SDS011;15981;43.292;-2.888;2023-04-03T07:09:31;8.10;;;3.10;;
28848;SDS011;15981;43.292;-2.888;2023-04-03T07:11:58;6.82;;;2.97;;
28848;SDS011;15981;43.292;-2.888;2023-04-03T07:14:23;5.47;;;2.33;;
28848;SDS011;15981;43.292;-2.888;2023-04-03T07:16:49;5.53;;;2.10;;
28848;SDS011;15981;43.292;-2.888;2023-04-03T07:19:15;7.53;;;2.42;;
28848;SDS011;15981;43.292;-2.888;2023-04-03T07:21:43;5.70;;;2.67;;
28848;SDS011;15981;43.292;-2.888;2023-04-03T07:24:10;3.80;;;2.00;;
28848;SDS011;15981;43.292;-2.888;2023-04-03T07:26:36;5.15;;;2.40;;
28848;SDS011;15981;43.292;-2.888;2023-04-03T07:29:02;3.90;;;2.30;;
28848;SDS011;15981;43.292;-2.888;2023-04-03T07:31:27;4.78;;;2.15;;
28848;SDS011;15981;43.292;-2.888;2023-04-03T07:33:53;7.38;;;2.33;;
28848;SDS011;15981;43.292;-2.888;2023-04-03T07:36:20;5.77;;;2.47;;
28848;SDS011;15981;43.292;-2.888;2023-04-03T07:38:46;4.88;;;2.20;;
28848;SDS011;15981;43.292;-2.888;2023-04-03T07:41:15;4.30;;;2.17;;
28848;SDS011;15981;43.292;-2.888;2023-04-03T07:43:43;5.60;;;2.25;;
28848;SDS011;15981;43.292;-2.888;2023-04-03T07:46:08;4.55;;;2.10;;
28848;SDS011;15981;43.292;-2.888;2023-04-03T07:48:34;4.30;;;1.93;;
28848;SDS011;15981;43.292;-2.888;2023-04-03T07:51:01;3.90;;;1.70;;
28848;SDS011;15981;43.292;-2.888;2023-04-03T07:53:27;4.75;;;1.90;;
28848;SDS011;15981;43.292;-2.888;2023-04-03T07:55:53;4.63;;;2.30;;
28848;SDS011;15981;43.292;-2.888;2023-04-03T07:58:21;6.57;;;3.33;;
28848;SDS011;15981;43.292;-2.888;2023-04-03T08:00:47;5.60;;;3.28;;
28848;SDS011;15981;43.292;-2.888;2023-04-03T08:03:13;5.03;;;2.60;;
28848;SDS011;15981;43.292;-2.888;2023-04-03T08:05:40;5.85;;;2.97;;
28848;SDS011;15981;43.292;-2.888;2023-04-03T08:08:06;6.47;;;3.10;;
28848;SDS011;15981;43.292;-2.888;2023-04-03T08:10:32;5.40;;;2.90;;
28848;SDS011;15981;43.292;-2.888;2023-04-03T08:12:58;12.15;;;6.85;;
28848;SDS011;15981;43.292;-2.888;2023-04-03T08:15:24;31.40;;;19.98;;
28848;SDS011;15981;43.292;-2.888;2023-04-03T08:17:50;72.97;;;48.57;;
28848;SDS011;15981;43.292;-2.888;2023-04-03T08:20:16;129.57;;;88.00;;
28848;SDS011;15981;43.292;-2.888;2023-04-03T08:22:41;161.23;;;111.40;;
28848;SDS011;15981;43.292;-2.888;2023-04-03T08:25:07;154.40;;;109.33;;
28848;SDS011;15981;43.292;-2.888;2023-04-03T08:27:33;160.18;;;106.80;;
28848;SDS011;15981;43.292;-2.888;2023-04-03T08:29:59;144.15;;;98.68;;
28848;SDS011;15981;43.292;-2.888;2023-04-03T08:32:25;143.20;;;93.28;;
28848;SDS011;15981;43.292;-2.888;2023-04-03T08:34:51;109.53;;;75.30;;
28848;SDS011;15981;43.292;-2.888;2023-04-03T08:37:16;108.57;;;68.88;;
28848;SDS011;15981;43.292;-2.888;2023-04-03T08:39:43;93.32;;;60.00;;
28848;SDS011;15981;43.292;-2.888;2023-04-03T08:44:55;131.27;;;81.97;;
28848;SDS011;15981;43.292;-2.888;2023-04-03T08:47:25;147.20;;;92.15;;
28848;SDS011;15981;43.292;-2.888;2023-04-03T08:50:00;140.27;;;84.18;;
28848;SDS011;15981;43.292;-2.888;2023-04-03T08:55:00;105.22;;;64.10;;
28848;SDS011;15981;43.292;-2.888;2023-04-03T08:57:38;94.00;;;58.15;;
28848;SDS011;15981;43.292;-2.888;2023-04-03T09:02:49;82.25;;;50.72;;
28848;SDS011;15981;43.292;-2.888;2023-04-03T09:05:19;77.40;;;47.85;;
28848;SDS011;15981;43.292;-2.888;2023-04-03T09:07:47;75.90;;;46.15;;
28848;SDS011;15981;43.292;-2.888;2023-04-03T09:10:18;73.25;;;44.10;;
28848;SDS011;15981;43.292;-2.888;2023-04-03T09:12:46;68.18;;;41.42;;
28848;SDS011;15981;43.292;-2.888;2023-04-03T09:15:23;63.55;;;39.13;;
28848;SDS011;15981;43.292;-2.888;2023-04-03T09:17:59;59.47;;;36.60;;
28848;SDS011;15981;43.292;-2.888;2023-04-03T09:22:57;43.42;;;28.50;;
28848;SDS011;15981;43.292;-2.888;2023-04-03T09:25:23;42.67;;;27.40;;
28848;SDS011;15981;43.292;-2.888;2023-04-03T09:27:51;39.05;;;24.73;;
28848;SDS011;15981;43.292;-2.888;2023-04-03T09:30:18;35.40;;;22.90;;
28848;SDS011;15981;43.292;-2.888;2023-04-03T09:32:45;37.67;;;22.50;;
28848;SDS011;15981;43.292;-2.888;2023-04-03T09:35:24;34.95;;;21.52;;
28848;SDS011;15981;43.292;-2.888;2023-04-03T09:37:52;32.50;;;20.35;;
28848;SDS011;15981;43.292;-2.888;2023-04-03T09:45:41;20.85;;;13.82;;
28848;SDS011;15981;43.292;-2.888;2023-04-03T09:48:09;21.33;;;13.02;;
28848;SDS011;15981;43.292;-2.888;2023-04-03T09:56:02;16.38;;;10.23;;
28848;SDS011;15981;43.292;-2.888;2023-04-03T09:58:30;15.43;;;9.57;;
28848;SDS011;15981;43.292;-2.888;2023-04-03T10:00:59;13.75;;;8.52;;
28848;SDS011;15981;43.292;-2.888;2023-04-03T10:03:32;13.40;;;8.15;;
28848;SDS011;15981;43.292;-2.888;2023-04-03T10:05:58;11.25;;;7.78;;
28848;SDS011;15981;43.292;-2.888;2023-04-03T10:08:26;11.07;;;7.20;;
28848;SDS011;15981;43.292;-2.888;2023-04-03T10:13:37;8.02;;;5.45;;
28848;SDS011;15981;43.292;-2.888;2023-04-03T10:16:14;8.13;;;5.38;;
28848;SDS011;15981;43.292;-2.888;2023-04-03T10:18:44;7.88;;;5.15;;
28848;SDS011;15981;43.292;-2.888;2023-04-03T10:23:44;7.03;;;4.20;;
28848;SDS011;15981;43.292;-2.888;2023-04-03T10:28:43;6.93;;;3.90;;
28848;SDS011;15981;43.292;-2.888;2023-04-03T10:34:01;6.15;;;3.70;;
28848;SDS011;15981;43.292;-2.888;2023-04-03T10:39:10;6.88;;;3.72;;
28848;SDS011;15981;43.292;-2.888;2023-04-03T10:44:12;3.53;;;2.42;;
28848;SDS011;15981;43.292;-2.888;2023-04-03T10:46:42;4.85;;;2.65;;
28848;SDS011;15981;43.292;-2.888;2023-04-03T10:49:22;3.78;;;2.20;;
28848;SDS011;15981;43.292;-2.888;2023-04-03T10:51:56;3.50;;;2.50;;
28848;SDS011;15981;43.292;-2.888;2023-04-03T10:54:27;4.03;;;2.60;;
28848;SDS011;15981;43.292;-2.888;2023-04-03T10:59:27;3.35;;;1.95;;
28848;SDS011;15981;43.292;-2.888;2023-04-03T11:01:55;4.05;;;1.90;;
28848;SDS011;15981;43.292;-2.888;2023-04-03T11:04:21;4.85;;;1.92;;
28848;SDS011;15981;43.292;-2.888;2023-04-03T11:06:50;4.00;;;2.00;;
28848;SDS011;15981;43.292;-2.888;2023-04-03T11:09:28;5.15;;;1.80;;
28848;SDS011;15981;43.292;-2.888;2023-04-03T11:12:01;3.88;;;2.20;;
28848;SDS011;15981;43.292;-2.888;2023-04-03T11:14:31;6.67;;;3.67;;
28848;SDS011;15981;43.292;-2.888;2023-04-03T11:24:36;104.72;;;57.15;;
28848;SDS011;15981;43.292;-2.888;2023-04-03T11:27:03;102.15;;;56.50;;
28848;SDS011;15981;43.292;-2.888;2023-04-03T11:29:37;103.93;;;54.17;;
28848;SDS011;15981;43.292;-2.888;2023-04-03T11:34:35;84.70;;;44.75;;
28848;SDS011;15981;43.292;-2.888;2023-04-03T11:37:04;84.00;;;43.72;;
28848;SDS011;15981;43.292;-2.888;2023-04-03T11:39:34;84.75;;;49.80;;
28848;SDS011;15981;43.292;-2.888;2023-04-03T11:44:41;89.40;;;52.70;;
28848;SDS011;15981;43.292;-2.888;2023-04-03T11:47:09;88.60;;;53.60;;
28848;SDS011;15981;43.292;-2.888;2023-04-03T11:49:51;77.57;;;48.88;;
28848;SDS011;15981;43.292;-2.888;2023-04-03T12:13:37;28.85;;;17.85;;
28848;SDS011;15981;43.292;-2.888;2023-04-03T12:16:03;27.70;;;17.10;;
28848;SDS011;15981;43.292;-2.888;2023-04-03T12:18:42;28.02;;;15.43;;
28848;SDS011;15981;43.292;-2.888;2023-04-03T12:21:09;24.42;;;14.27;;
28848;SDS011;15981;43.292;-2.888;2023-04-03T12:23:36;20.17;;;12.43;;
28848;SDS011;15981;43.292;-2.888;2023-04-03T12:26:21;21.38;;;12.98;;
28848;SDS011;15981;43.292;-2.888;2023-04-03T12:28:48;18.73;;;11.57;;
28848;SDS011;15981;43.292;-2.888;2023-04-03T12:31:14;17.45;;;10.75;;
28848;SDS011;15981;43.292;-2.888;2023-04-03T12:36:26;17.80;;;10.77;;
28848;SDS011;15981;43.292;-2.888;2023-04-03T12:39:04;16.65;;;10.55;;
28848;SDS011;15981;43.292;-2.888;2023-04-03T12:41:38;18.45;;;10.90;;
28848;SDS011;15981;43.292;-2.888;2023-04-03T12:47:29;15.15;;;9.30;;
28848;SDS011;15981;43.292;-2.888;2023-04-03T12:49:53;14.93;;;9.38;;
28848;SDS011;15981;43.292;-2.888;2023-04-03T12:52:35;15.82;;;9.48;;
28848;SDS011;15981;43.292;-2.888;2023-04-03T12:55:02;13.48;;;8.70;;
28848;SDS011;15981;43.292;-2.888;2023-04-03T12:57:31;16.17;;;8.47;;
28848;SDS011;15981;43.292;-2.888;2023-04-03T12:59:58;15.52;;;8.20;;
28848;SDS011;15981;43.292;-2.888;2023-04-03T13:04:53;13.90;;;8.63;;
28848;SDS011;15981;43.292;-2.888;2023-04-03T13:07:22;12.75;;;8.38;;
28848;SDS011;15981;43.292;-2.888;2023-04-03T13:09:57;12.90;;;7.93;;
28848;SDS011;15981;43.292;-2.888;2023-04-03T13:12:24;17.00;;;8.43;;
28848;SDS011;15981;43.292;-2.888;2023-04-03T13:14:57;15.90;;;8.32;;
28848;SDS011;15981;43.292;-2.888;2023-04-03T13:17:23;17.37;;;9.00;;
28848;SDS011;15981;43.292;-2.888;2023-04-03T13:19:49;16.10;;;8.00;;
28848;SDS011;15981;43.292;-2.888;2023-04-03T13:24:42;14.53;;;7.83;;
28848;SDS011;15981;43.292;-2.888;2023-04-03T13:27:10;14.73;;;7.75;;
28848;SDS011;15981;43.292;-2.888;2023-04-03T13:29:36;14.93;;;7.50;;
28848;SDS011;15981;43.292;-2.888;2023-04-03T13:32:03;12.98;;;7.60;;
28848;SDS011;15981;43.292;-2.888;2023-04-03T13:34:41;11.60;;;6.95;;
28848;SDS011;15981;43.292;-2.888;2023-04-03T13:37:11;13.18;;;6.90;;
28848;SDS011;15981;43.292;-2.888;2023-04-03T13:39:45;11.75;;;6.82;;
28848;SDS011;15981;43.292;-2.888;2023-04-03T13:42:15;10.77;;;6.32;;
28848;SDS011;15981;43.292;-2.888;2023-04-03T13:44:41;11.05;;;6.78;;
28848;SDS011;15981;43.292;-2.888;2023-04-03T13:49:38;10.93;;;6.70;;
28848;SDS011;15981;43.292;-2.888;2023-04-03T13:55:03;11.82;;;6.35;;
28848;SDS011;15981;43.292;-2.888;2023-04-03T13:57:35;10.13;;;5.80;;
28848;SDS011;15981;43.292;-2.888;2023-04-03T14:00:18;9.70;;;6.07;;
28848;SDS011;15981;43.292;-2.888;2023-04-03T14:02:46;10.02;;;5.95;;
28848;SDS011;15981;43.292;-2.888;2023-04-03T14:05:12;10.65;;;5.90;;
28848;SDS011;15981;43.292;-2.888;2023-04-03T14:07:38;10.93;;;5.88;;
28848;SDS011;15981;43.292;-2.888;2023-04-03T14:10:05;8.90;;;5.53;;
28848;SDS011;15981;43.292;-2.888;2023-04-03T14:12:34;11.13;;;5.85;;
28848;SDS011;15981;43.292;-2.888;2023-04-03T14:15:02;7.82;;;5.43;;
28848;SDS011;15981;43.292;-2.888;2023-04-03T14:17:28;8.77;;;5.25;;
28848;SDS011;15981;43.292;-2.888;2023-04-03T14:19:55;9.93;;;5.32;;
28848;SDS011;15981;43.292;-2.888;2023-04-03T14:22:23;11.63;;;5.80;;
28848;SDS011;15981;43.292;-2.888;2023-04-03T14:24:49;12.00;;;5.57;;
28848;SDS011;15981;43.292;-2.888;2023-04-03T14:27:16;11.40;;;5.03;;
28848;SDS011;15981;43.292;-2.888;2023-04-03T14:29:42;8.35;;;4.57;;
28848;SDS011;15981;43.292;-2.888;2023-04-03T14:32:10;7.70;;;4.43;;
28848;SDS011;15981;43.292;-2.888;2023-04-03T14:34:36;9.32;;;4.45;;
28848;SDS011;15981;43.292;-2.888;2023-04-03T14:37:04;6.35;;;3.88;;
28848;SDS011;15981;43.292;-2.888;2023-04-03T14:39:30;8.00;;;4.00;;
28848;SDS011;15981;43.292;-2.888;2023-04-03T14:41:56;6.32;;;3.90;;
28848;SDS011;15981;43.292;-2.888;2023-04-03T14:44:21;7.68;;;3.90;;
28848;SDS011;15981;43.292;-2.888;2023-04-03T14:46:48;5.50;;;3.97;;
28848;SDS011;15981;43.292;-2.888;2023-04-03T14:49:18;6.05;;;3.40;;
28848;SDS011;15981;43.292;-2.888;2023-04-03T14:51:45;5.70;;;3.57;;
28848;SDS011;15981;43.292;-2.888;2023-04-03T14:54:16;4.27;;;2.90;;
28848;SDS011;15981;43.292;-2.888;2023-04-03T14:56:42;5.32;;;2.90;;
28848;SDS011;15981;43.292;-2.888;2023-04-03T14:59:11;6.45;;;3.38;;
28848;SDS011;15981;43.292;-2.888;2023-04-03T15:01:37;5.80;;;3.30;;
28848;SDS011;15981;43.292;-2.888;2023-04-03T15:04:10;5.28;;;3.17;;
28848;SDS011;15981;43.292;-2.888;2023-04-03T15:06:36;5.78;;;3.08;;
28848;SDS011;15981;43.292;-2.888;2023-04-03T15:09:02;5.28;;;3.20;;
28848;SDS011;15981;43.292;-2.888;2023-04-03T15:11:28;6.37;;;3.00;;
28848;SDS011;15981;43.292;-2.888;2023-04-03T15:13:54;11.23;;;3.78;;
28848;SDS011;15981;43.292;-2.888;2023-04-03T15:16:20;6.43;;;2.80;;
28848;SDS011;15981;43.292;-2.888;2023-04-03T15:18:46;7.38;;;3.20;;
28848;SDS011;15981;43.292;-2.888;2023-04-03T15:21:12;6.43;;;3.30;;
28848;SDS011;15981;43.292;-2.888;2023-04-03T15:23:38;7.15;;;2.90;;
28848;SDS011;15981;43.292;-2.888;2023-04-03T15:26:04;6.82;;;2.90;;
28848;SDS011;15981;43.292;-2.888;2023-04-03T15:28:37;6.57;;;3.00;;
28848;SDS011;15981;43.292;-2.888;2023-04-03T15:31:04;4.75;;;2.67;;
28848;SDS011;15981;43.292;-2.888;2023-04-03T15:33:30;5.30;;;2.30;;
28848;SDS011;15981;43.292;-2.888;2023-04-03T15:35:56;5.47;;;2.60;;
28848;SDS011;15981;43.292;-2.888;2023-04-03T15:38:22;5.43;;;2.70;;
28848;SDS011;15981;43.292;-2.888;2023-04-03T15:40:47;11.75;;;2.65;;
28848;SDS011;15981;43.292;-2.888;2023-04-03T15:43:13;5.20;;;3.10;;
28848;SDS011;15981;43.292;-2.888;2023-04-03T15:45:39;3.88;;;2.38;;
28848;SDS011;15981;43.292;-2.888;2023-04-03T15:48:05;3.25;;;2.30;;
28848;SDS011;15981;43.292;-2.888;2023-04-03T15:50:32;4.10;;;2.50;;
28848;SDS011;15981;43.292;-2.888;2023-04-03T15:52:58;4.73;;;2.13;;
28848;SDS011;15981;43.292;-2.888;2023-04-03T15:55:24;5.88;;;2.83;;
28848;SDS011;15981;43.292;-2.888;2023-04-03T15:57:50;5.10;;;2.50;;
28848;SDS011;15981;43.292;-2.888;2023-04-03T16:00:16;4.37;;;2.10;;
28848;SDS011;15981;43.292;-2.888;2023-04-03T16:02:42;4.53;;;2.30;;
28848;SDS011;15981;43.292;-2.888;2023-04-03T16:05:09;2.58;;;2.03;;